sensor_id;sensor_type;location;lat;lon;timestamp;pressure;altitude;pressure_sealevel;temperature;humidity
1480;BME280;732;51.698;4.886;2024-01-27T00:00:05;103691.00;;;0.70;87.99
1480;BME280;732;51.698;4.886;2024-01-27T00:02:35;103700.47;;;0.81;88.85
1480;BME280;732;51.698;4.886;2024-01-27T00:05:04;103708.84;;;0.98;87.97
1480;BME280;732;51.698;4.886;2024-01-27T00:07:32;103705.13;;;1.07;87.31
1480;BME280;732;51.698;4.886;2024-01-27T00:10:02;103702.63;;;1.01;86.76
1480;BME280;732;51.698;4.886;2024-01-27T00:12:31;103695.06;;;0.87;86.47
1480;BME280;732;51.698;4.886;2024-01-27T00:15:00;103689.03;;;0.80;86.51
1480;BME280;732;51.698;4.886;2024-01-27T00:17:29;103713.44;;;0.88;87.14
1480;BME280;732;51.698;4.886;2024-01-27T00:19:58;103696.28;;;0.70;88.31
1480;BME280;732;51.698;4.886;2024-01-27T00:22:27;103676.25;;;0.63;87.87
1480;BME280;732;51.698;4.886;2024-01-27T00:24:55;103719.63;;;0.87;87.16
1480;BME280;732;51.698;4.886;2024-01-27T00:27:24;103660.75;;;0.49;86.56
1480;BME280;732;51.698;4.886;2024-01-27T00:29:52;103689.34;;;0.66;86.18
1480;BME280;732;51.698;4.886;2024-01-27T00:32:22;103712.19;;;0.66;86.94
1480;BME280;732;51.698;4.886;2024-01-27T00:34:51;103724.22;;;0.78;86.55
1480;BME280;732;51.698;4.886;2024-01-27T00:37:19;103694.66;;;0.65;87.00
1480;BME280;732;51.698;4.886;2024-01-27T00:39:48;103721.41;;;0.85;86.30
1480;BME280;732;51.698;4.886;2024-01-27T00:42:16;103719.97;;;0.70;86.49
1480;BME280;732;51.698;4.886;2024-01-27T00:44:51;103709.47;;;0.69;86.50
1480;BME280;732;51.698;4.886;2024-01-27T00:47:19;103726.03;;;0.75;86.51
1480;BME280;732;51.698;4.886;2024-01-27T00:49:49;103725.09;;;0.78;85.91
1480;BME280;732;51.698;4.886;2024-01-27T00:52:18;103716.72;;;0.59;86.28
1480;BME280;732;51.698;4.886;2024-01-27T00:54:47;103718.41;;;0.63;86.95
1480;BME280;732;51.698;4.886;2024-01-27T00:57:16;103728.84;;;0.66;86.12
1480;BME280;732;51.698;4.886;2024-01-27T00:59:45;103707.19;;;0.53;86.89
1480;BME280;732;51.698;4.886;2024-01-27T01:02:13;103713.84;;;0.70;86.12
1480;BME280;732;51.698;4.886;2024-01-27T01:04:42;103712.34;;;0.59;85.99
1480;BME280;732;51.698;4.886;2024-01-27T01:07:13;103735.88;;;0.67;85.84
1480;BME280;732;51.698;4.886;2024-01-27T01:09:42;103725.53;;;0.56;86.66
1480;BME280;732;51.698;4.886;2024-01-27T01:12:10;103678.56;;;0.36;86.71
1480;BME280;732;51.698;4.886;2024-01-27T01:14:39;103706.22;;;0.57;85.77
1480;BME280;732;51.698;4.886;2024-01-27T01:17:08;103721.03;;;0.63;86.21
1480;BME280;732;51.698;4.886;2024-01-27T01:19:37;103713.00;;;0.68;86.00
1480;BME280;732;51.698;4.886;2024-01-27T01:22:06;103716.66;;;0.62;85.78
1480;BME280;732;51.698;4.886;2024-01-27T01:24:40;103716.06;;;0.48;85.56
1480;BME280;732;51.698;4.886;2024-01-27T01:27:09;103703.16;;;0.37;86.88
1480;BME280;732;51.698;4.886;2024-01-27T01:29:38;103721.41;;;0.45;86.22
1480;BME280;732;51.698;4.886;2024-01-27T01:32:06;103715.44;;;0.36;86.79
1480;BME280;732;51.698;4.886;2024-01-27T01:34:36;103731.25;;;0.35;87.27
1480;BME280;732;51.698;4.886;2024-01-27T01:37:04;103730.38;;;0.36;86.93
1480;BME280;732;51.698;4.886;2024-01-27T01:39:33;103709.34;;;0.33;87.59
1480;BME280;732;51.698;4.886;2024-01-27T01:42:03;103700.66;;;0.31;86.45
1480;BME280;732;51.698;4.886;2024-01-27T01:44:32;103732.03;;;0.40;86.85
1480;BME280;732;51.698;4.886;2024-01-27T01:47:01;103720.97;;;0.22;87.24
1480;BME280;732;51.698;4.886;2024-01-27T01:49:31;103726.94;;;0.32;86.88
1480;BME280;732;51.698;4.886;2024-01-27T01:52:00;103739.25;;;0.30;87.38
1480;BME280;732;51.698;4.886;2024-01-27T01:54:29;103737.59;;;0.26;87.14
1480;BME280;732;51.698;4.886;2024-01-27T01:56:59;103740.44;;;0.14;88.67
1480;BME280;732;51.698;4.886;2024-01-27T01:59:29;103720.34;;;0.09;89.24
1480;BME280;732;51.698;4.886;2024-01-27T02:01:58;103694.91;;;0.10;88.63
1480;BME280;732;51.698;4.886;2024-01-27T02:04:26;103744.34;;;0.39;88.03
1480;BME280;732;51.698;4.886;2024-01-27T02:06:55;103738.28;;;0.34;86.65
1480;BME280;732;51.698;4.886;2024-01-27T02:09:23;103686.41;;;-0.04;87.05
1480;BME280;732;51.698;4.886;2024-01-27T02:11:52;103741.78;;;0.35;86.78
1480;BME280;732;51.698;4.886;2024-01-27T02:14:21;103734.19;;;0.21;87.47
1480;BME280;732;51.698;4.886;2024-01-27T02:16:53;103714.16;;;0.12;87.64
1480;BME280;732;51.698;4.886;2024-01-27T02:19:22;103743.75;;;0.25;87.28
1480;BME280;732;51.698;4.886;2024-01-27T02:21:52;103748.16;;;0.24;87.28
1480;BME280;732;51.698;4.886;2024-01-27T02:24:21;103737.72;;;0.18;86.94
1480;BME280;732;51.698;4.886;2024-01-27T02:26:50;103739.47;;;0.18;87.39
1480;BME280;732;51.698;4.886;2024-01-27T02:29:19;103739.53;;;0.16;87.22
1480;BME280;732;51.698;4.886;2024-01-27T02:31:47;103731.63;;;0.16;86.84
1480;BME280;732;51.698;4.886;2024-01-27T02:34:16;103741.13;;;0.23;86.40
1480;BME280;732;51.698;4.886;2024-01-27T02:36:45;103740.28;;;0.21;86.20
1480;BME280;732;51.698;4.886;2024-01-27T02:39:13;103713.56;;;-0.02;86.42
1480;BME280;732;51.698;4.886;2024-01-27T02:41:43;103752.00;;;0.05;86.74
1480;BME280;732;51.698;4.886;2024-01-27T02:44:12;103743.31;;;0.01;86.60
1480;BME280;732;51.698;4.886;2024-01-27T02:46:41;103757.97;;;0.15;86.52
1480;BME280;732;51.698;4.886;2024-01-27T02:49:11;103732.88;;;-0.05;86.74
1480;BME280;732;51.698;4.886;2024-01-27T02:51:40;103745.00;;;0.04;86.10
1480;BME280;732;51.698;4.886;2024-01-27T02:54:09;103757.34;;;0.00;86.36
1480;BME280;732;51.698;4.886;2024-01-27T02:56:37;103718.22;;;-0.18;86.61
1480;BME280;732;51.698;4.886;2024-01-27T02:59:07;103753.75;;;0.04;86.10
1480;BME280;732;51.698;4.886;2024-01-27T03:01:35;103733.19;;;-0.22;86.52
1480;BME280;732;51.698;4.886;2024-01-27T03:04:03;103705.34;;;-0.34;86.81
1480;BME280;732;51.698;4.886;2024-01-27T03:06:32;103738.22;;;-0.08;86.70
1480;BME280;732;51.698;4.886;2024-01-27T03:09:01;103746.97;;;-0.08;87.05
1480;BME280;732;51.698;4.886;2024-01-27T03:11:30;103744.22;;;-0.01;86.63
1480;BME280;732;51.698;4.886;2024-01-27T03:13:59;103751.28;;;-0.03;86.83
1480;BME280;732;51.698;4.886;2024-01-27T03:16:29;103748.75;;;-0.10;87.25
1480;BME280;732;51.698;4.886;2024-01-27T03:18:57;103727.16;;;-0.27;87.49
1480;BME280;732;51.698;4.886;2024-01-27T03:21:27;103747.25;;;-0.25;88.46
1480;BME280;732;51.698;4.886;2024-01-27T03:23:55;103753.19;;;-0.12;88.97
1480;BME280;732;51.698;4.886;2024-01-27T03:26:24;103731.47;;;-0.25;89.42
1480;BME280;732;51.698;4.886;2024-01-27T03:28:53;103760.78;;;0.04;88.62
1480;BME280;732;51.698;4.886;2024-01-27T03:31:21;103765.22;;;0.02;88.16
1480;BME280;732;51.698;4.886;2024-01-27T03:33:52;103744.44;;;-0.14;88.46
1480;BME280;732;51.698;4.886;2024-01-27T03:36:20;103766.19;;;-0.04;88.98
1480;BME280;732;51.698;4.886;2024-01-27T03:38:49;103761.72;;;0.01;88.54
1480;BME280;732;51.698;4.886;2024-01-27T03:41:18;103741.53;;;0.03;88.88
1480;BME280;732;51.698;4.886;2024-01-27T03:43:46;103758.25;;;0.01;88.30
1480;BME280;732;51.698;4.886;2024-01-27T03:46:15;103735.81;;;-0.22;88.68
1480;BME280;732;51.698;4.886;2024-01-27T03:48:43;103746.22;;;-0.14;89.11
1480;BME280;732;51.698;4.886;2024-01-27T03:51:13;103740.75;;;-0.02;88.68
1480;BME280;732;51.698;4.886;2024-01-27T03:53:42;103764.97;;;0.16;88.07
1480;BME280;732;51.698;4.886;2024-01-27T03:56:12;103758.25;;;-0.01;88.22
1480;BME280;732;51.698;4.886;2024-01-27T03:58:41;103752.81;;;0.08;88.42
1480;BME280;732;51.698;4.886;2024-01-27T04:01:09;103749.19;;;0.14;88.13
1480;BME280;732;51.698;4.886;2024-01-27T04:03:38;103760.66;;;0.12;87.57
1480;BME280;732;51.698;4.886;2024-01-27T04:06:06;103756.19;;;0.15;87.17
1480;BME280;732;51.698;4.886;2024-01-27T04:08:37;103760.66;;;0.13;86.91
1480;BME280;732;51.698;4.886;2024-01-27T04:11:05;103758.13;;;0.05;87.29
1480;BME280;732;51.698;4.886;2024-01-27T04:13:35;103736.41;;;-0.06;87.43
1480;BME280;732;51.698;4.886;2024-01-27T04:16:05;103757.38;;;-0.01;86.88
1480;BME280;732;51.698;4.886;2024-01-27T04:18:34;103731.34;;;-0.15;87.33
1480;BME280;732;51.698;4.886;2024-01-27T04:21:03;103747.97;;;-0.15;87.49
1480;BME280;732;51.698;4.886;2024-01-27T04:23:31;103750.59;;;-0.15;88.24
1480;BME280;732;51.698;4.886;2024-01-27T04:26:02;103751.38;;;-0.08;88.23
1480;BME280;732;51.698;4.886;2024-01-27T04:28:31;103763.53;;;-0.02;87.77
1480;BME280;732;51.698;4.886;2024-01-27T04:31:00;103767.94;;;-0.03;87.47
1480;BME280;732;51.698;4.886;2024-01-27T04:33:28;103760.34;;;-0.20;88.72
1480;BME280;732;51.698;4.886;2024-01-27T04:35:57;103755.84;;;-0.15;88.64
1480;BME280;732;51.698;4.886;2024-01-27T04:38:25;103767.28;;;-0.14;89.09
1480;BME280;732;51.698;4.886;2024-01-27T04:40:54;103761.94;;;-0.11;88.97
1480;BME280;732;51.698;4.886;2024-01-27T04:43:24;103779.28;;;-0.01;87.83
1480;BME280;732;51.698;4.886;2024-01-27T04:45:53;103768.69;;;0.04;88.04
1480;BME280;732;51.698;4.886;2024-01-27T04:48:21;103754.06;;;-0.11;87.67
1480;BME280;732;51.698;4.886;2024-01-27T04:50:50;103755.72;;;-0.06;88.33
1480;BME280;732;51.698;4.886;2024-01-27T04:53:19;103759.97;;;0.00;87.57
1480;BME280;732;51.698;4.886;2024-01-27T04:55:48;103754.78;;;-0.04;87.64
1480;BME280;732;51.698;4.886;2024-01-27T04:58:16;103760.88;;;0.01;87.96
1480;BME280;732;51.698;4.886;2024-01-27T05:00:46;103754.91;;;-0.09;87.84
1480;BME280;732;51.698;4.886;2024-01-27T05:03:15;103714.94;;;-0.31;87.85
1480;BME280;732;51.698;4.886;2024-01-27T05:05:44;103740.84;;;-0.10;87.25
1480;BME280;732;51.698;4.886;2024-01-27T05:08:13;103766.94;;;0.03;87.53
1480;BME280;732;51.698;4.886;2024-01-27T05:10:42;103760.00;;;-0.01;87.53
1480;BME280;732;51.698;4.886;2024-01-27T05:13:10;103770.34;;;0.08;86.84
1480;BME280;732;51.698;4.886;2024-01-27T05:15:39;103766.13;;;0.01;87.08
1480;BME280;732;51.698;4.886;2024-01-27T05:18:08;103765.16;;;0.05;86.56
1480;BME280;732;51.698;4.886;2024-01-27T05:20:37;103773.09;;;0.03;86.55
1480;BME280;732;51.698;4.886;2024-01-27T05:23:06;103757.38;;;-0.01;86.00
1480;BME280;732;51.698;4.886;2024-01-27T05:25:34;103762.56;;;0.02;85.89
1480;BME280;732;51.698;4.886;2024-01-27T05:28:04;103755.75;;;-0.09;86.16
1480;BME280;732;51.698;4.886;2024-01-27T05:30:32;103753.34;;;-0.21;86.14
1480;BME280;732;51.698;4.886;2024-01-27T05:33:01;103748.06;;;-0.21;86.03
1480;BME280;732;51.698;4.886;2024-01-27T05:35:31;103735.91;;;-0.28;86.41
1480;BME280;732;51.698;4.886;2024-01-27T05:37:59;103751.69;;;-0.28;86.41
1480;BME280;732;51.698;4.886;2024-01-27T05:40:29;103695.28;;;-0.60;85.82
1480;BME280;732;51.698;4.886;2024-01-27T05:42:58;103737.97;;;-0.44;86.15
1480;BME280;732;51.698;4.886;2024-01-27T05:45:26;103743.13;;;-0.38;86.12
1480;BME280;732;51.698;4.886;2024-01-27T05:47:56;103748.34;;;-0.36;86.21
1480;BME280;732;51.698;4.886;2024-01-27T05:50:26;103735.28;;;-0.41;85.83
1480;BME280;732;51.698;4.886;2024-01-27T05:52:56;103719.69;;;-0.53;85.73
1480;BME280;732;51.698;4.886;2024-01-27T05:55:24;103742.25;;;-0.39;85.88
1480;BME280;732;51.698;4.886;2024-01-27T05:57:53;103717.97;;;-0.53;85.88
1480;BME280;732;51.698;4.886;2024-01-27T06:00:23;103743.22;;;-0.46;85.98
1480;BME280;732;51.698;4.886;2024-01-27T06:02:52;103717.13;;;-0.57;85.81
1480;BME280;732;51.698;4.886;2024-01-27T06:05:21;103731.97;;;-0.52;86.13
1480;BME280;732;51.698;4.886;2024-01-27T06:07:50;103742.38;;;-0.46;85.44
1480;BME280;732;51.698;4.886;2024-01-27T06:10:20;103744.00;;;-0.41;85.50
1480;BME280;732;51.698;4.886;2024-01-27T06:12:50;103744.25;;;-0.53;85.36
1480;BME280;732;51.698;4.886;2024-01-27T06:15:18;103746.19;;;-0.66;85.52
1480;BME280;732;51.698;4.886;2024-01-27T06:17:47;103747.91;;;-0.65;85.52
1480;BME280;732;51.698;4.886;2024-01-27T06:20:16;103614.97;;;-1.33;85.65
1480;BME280;732;51.698;4.886;2024-01-27T06:22:46;103698.34;;;-0.87;85.01
1480;BME280;732;51.698;4.886;2024-01-27T06:25:15;103728.84;;;-0.78;85.53
1480;BME280;732;51.698;4.886;2024-01-27T06:27:45;103733.94;;;-0.67;85.60
1480;BME280;732;51.698;4.886;2024-01-27T06:30:14;103733.22;;;-0.78;85.24
1480;BME280;732;51.698;4.886;2024-01-27T06:32:43;103691.66;;;-1.09;85.84
1480;BME280;732;51.698;4.886;2024-01-27T06:35:12;103740.34;;;-0.85;86.09
1480;BME280;732;51.698;4.886;2024-01-27T06:37:40;103735.13;;;-0.88;85.79
1480;BME280;732;51.698;4.886;2024-01-27T06:40:10;103762.31;;;-0.91;86.75
1480;BME280;732;51.698;4.886;2024-01-27T06:42:39;103658.09;;;-1.49;87.67
1480;BME280;732;51.698;4.886;2024-01-27T06:45:09;103758.03;;;-0.98;88.53
1480;BME280;732;51.698;4.886;2024-01-27T06:47:38;103730.03;;;-0.99;88.20
1480;BME280;732;51.698;4.886;2024-01-27T06:50:08;103771.72;;;-0.74;88.39
1480;BME280;732;51.698;4.886;2024-01-27T06:52:38;103769.97;;;-0.74;88.64
1480;BME280;732;51.698;4.886;2024-01-27T06:55:06;103764.69;;;-0.74;89.03
1480;BME280;732;51.698;4.886;2024-01-27T06:57:38;103734.28;;;-0.92;89.15
1480;BME280;732;51.698;4.886;2024-01-27T07:00:11;103780.38;;;-0.67;89.41
1480;BME280;732;51.698;4.886;2024-01-27T07:02:43;103789.22;;;-0.72;90.20
1480;BME280;732;51.698;4.886;2024-01-27T07:05:11;103782.09;;;-0.65;89.57
1480;BME280;732;51.698;4.886;2024-01-27T07:07:42;103786.41;;;-0.61;89.63
1480;BME280;732;51.698;4.886;2024-01-27T07:10:11;103739.53;;;-0.92;89.48
1480;BME280;732;51.698;4.886;2024-01-27T07:12:39;103787.34;;;-0.65;89.78
1480;BME280;732;51.698;4.886;2024-01-27T07:15:10;103787.25;;;-0.59;88.97
1480;BME280;732;51.698;4.886;2024-01-27T07:17:38;103776.75;;;-0.59;88.70
1480;BME280;732;51.698;4.886;2024-01-27T07:20:09;103786.25;;;-0.50;88.31
1480;BME280;732;51.698;4.886;2024-01-27T07:22:37;103775.88;;;-0.61;88.61
1480;BME280;732;51.698;4.886;2024-01-27T07:25:06;103788.09;;;-0.58;88.87
1480;BME280;732;51.698;4.886;2024-01-27T07:27:37;103759.44;;;-0.74;90.21
1480;BME280;732;51.698;4.886;2024-01-27T07:30:10;103782.75;;;-0.50;89.71
1480;BME280;732;51.698;4.886;2024-01-27T07:32:39;103778.34;;;-0.50;89.05
1480;BME280;732;51.698;4.886;2024-01-27T07:35:08;103784.50;;;-0.51;89.29
1480;BME280;732;51.698;4.886;2024-01-27T07:37:37;103749.66;;;-0.64;88.74
1480;BME280;732;51.698;4.886;2024-01-27T07:40:09;103766.84;;;-0.43;88.44
1480;BME280;732;51.698;4.886;2024-01-27T07:42:38;103752.22;;;-0.59;88.67
1480;BME280;732;51.698;4.886;2024-01-27T07:45:08;103772.06;;;-0.38;88.95
1480;BME280;732;51.698;4.886;2024-01-27T07:47:37;103788.53;;;-0.27;88.91
1480;BME280;732;51.698;4.886;2024-01-27T07:50:07;103780.72;;;-0.33;88.42
1480;BME280;732;51.698;4.886;2024-01-27T07:52:36;103770.25;;;-0.36;88.88
1480;BME280;732;51.698;4.886;2024-01-27T07:55:05;103787.47;;;-0.16;88.16
1480;BME280;732;51.698;4.886;2024-01-27T07:57:34;103748.59;;;-0.50;87.95
1480;BME280;732;51.698;4.886;2024-01-27T08:00:03;103776.47;;;-0.40;88.29
1480;BME280;732;51.698;4.886;2024-01-27T08:02:35;103736.63;;;-0.70;88.40
1480;BME280;732;51.698;4.886;2024-01-27T08:05:04;103791.44;;;-0.45;88.56
1480;BME280;732;51.698;4.886;2024-01-27T08:07:33;103767.09;;;-0.57;89.21
1480;BME280;732;51.698;4.886;2024-01-27T08:10:01;103800.91;;;-0.35;88.76
1480;BME280;732;51.698;4.886;2024-01-27T08:12:31;103783.38;;;-0.36;89.03
1480;BME280;732;51.698;4.886;2024-01-27T08:15:01;103772.16;;;-0.46;89.17
1480;BME280;732;51.698;4.886;2024-01-27T08:17:29;103737.28;;;-0.57;89.23
1480;BME280;732;51.698;4.886;2024-01-27T08:19:59;103758.16;;;-0.46;89.05
1480;BME280;732;51.698;4.886;2024-01-27T08:22:29;103765.97;;;-0.43;89.07
1480;BME280;732;51.698;4.886;2024-01-27T08:24:57;103774.47;;;-0.27;89.43
1480;BME280;732;51.698;4.886;2024-01-27T08:27:26;103735.72;;;-0.69;89.22
1480;BME280;732;51.698;4.886;2024-01-27T08:29:55;103799.22;;;-0.39;90.28
1480;BME280;732;51.698;4.886;2024-01-27T08:32:24;103723.41;;;-0.67;90.03
1480;BME280;732;51.698;4.886;2024-01-27T08:34:53;103750.34;;;-0.52;89.93
1480;BME280;732;51.698;4.886;2024-01-27T08:37:23;103789.53;;;-0.37;90.63
1480;BME280;732;51.698;4.886;2024-01-27T08:39:51;103801.69;;;-0.30;90.71
1480;BME280;732;51.698;4.886;2024-01-27T08:42:20;103799.13;;;-0.34;91.59
1480;BME280;732;51.698;4.886;2024-01-27T08:44:48;103789.78;;;-0.52;91.55
1480;BME280;732;51.698;4.886;2024-01-27T08:47:17;103818.88;;;-0.09;91.73
1480;BME280;732;51.698;4.886;2024-01-27T08:49:45;103788.41;;;-0.22;91.29
1480;BME280;732;51.698;4.886;2024-01-27T08:52:14;103791.91;;;-0.20;90.73
1480;BME280;732;51.698;4.886;2024-01-27T08:54:44;103824.88;;;0.01;90.96
1480;BME280;732;51.698;4.886;2024-01-27T08:57:12;103814.16;;;0.12;90.88
1480;BME280;732;51.698;4.886;2024-01-27T08:59:41;103821.13;;;0.15;91.23
1480;BME280;732;51.698;4.886;2024-01-27T09:02:10;103730.66;;;-0.28;91.25
1480;BME280;732;51.698;4.886;2024-01-27T09:04:38;103818.25;;;0.29;90.86
1480;BME280;732;51.698;4.886;2024-01-27T09:07:07;103811.22;;;0.29;91.28
1480;BME280;732;51.698;4.886;2024-01-27T09:09:35;103823.09;;;0.52;90.84
1480;BME280;732;51.698;4.886;2024-01-27T09:12:07;103799.41;;;0.50;89.46
1480;BME280;732;51.698;4.886;2024-01-27T09:14:35;103780.34;;;0.37;89.72
1480;BME280;732;51.698;4.886;2024-01-27T09:17:04;103786.34;;;0.46;90.10
1480;BME280;732;51.698;4.886;2024-01-27T09:19:32;103798.47;;;0.53;90.12
1480;BME280;732;51.698;4.886;2024-01-27T09:22:01;103828.97;;;0.65;90.14
1480;BME280;732;51.698;4.886;2024-01-27T09:24:30;103775.69;;;0.50;89.92
1480;BME280;732;51.698;4.886;2024-01-27T09:26:58;103790.66;;;0.50;89.64
1480;BME280;732;51.698;4.886;2024-01-27T09:29:29;103803.78;;;0.51;91.06
1480;BME280;732;51.698;4.886;2024-01-27T09:31:57;103816.69;;;0.64;90.92
1480;BME280;732;51.698;4.886;2024-01-27T09:34:26;103846.16;;;0.83;91.91
1480;BME280;732;51.698;4.886;2024-01-27T09:36:56;103823.97;;;0.95;90.73
1480;BME280;732;51.698;4.886;2024-01-27T09:39:24;103846.34;;;1.17;90.68
1480;BME280;732;51.698;4.886;2024-01-27T09:41:54;103813.84;;;1.15;90.67
1480;BME280;732;51.698;4.886;2024-01-27T09:44:24;103825.03;;;1.28;90.63
1480;BME280;732;51.698;4.886;2024-01-27T09:46:55;103831.63;;;1.46;90.80
1480;BME280;732;51.698;4.886;2024-01-27T09:49:26;103770.69;;;1.21;90.75
1480;BME280;732;51.698;4.886;2024-01-27T09:51:54;103842.56;;;1.68;90.24
1480;BME280;732;51.698;4.886;2024-01-27T09:54:24;103838.66;;;1.83;89.93
1480;BME280;732;51.698;4.886;2024-01-27T09:56:52;103836.88;;;1.85;90.15
1480;BME280;732;51.698;4.886;2024-01-27T09:59:22;103852.00;;;2.13;89.18
1480;BME280;732;51.698;4.886;2024-01-27T10:01:52;103826.59;;;2.09;89.80
1480;BME280;732;51.698;4.886;2024-01-27T10:04:23;103849.63;;;2.02;88.99
1480;BME280;732;51.698;4.886;2024-01-27T10:06:53;103871.59;;;2.39;89.04
1480;BME280;732;51.698;4.886;2024-01-27T10:09:22;103869.00;;;2.37;87.99
1480;BME280;732;51.698;4.886;2024-01-27T10:11:51;103820.88;;;2.26;88.24
1480;BME280;732;51.698;4.886;2024-01-27T10:14:22;103879.03;;;2.58;87.36
1480;BME280;732;51.698;4.886;2024-01-27T10:16:50;103845.06;;;2.44;87.20
1480;BME280;732;51.698;4.886;2024-01-27T10:19:19;103881.19;;;2.75;87.09
1480;BME280;732;51.698;4.886;2024-01-27T10:22:00;103902.31;;;3.08;87.31
1480;BME280;732;51.698;4.886;2024-01-27T10:24:29;103899.19;;;3.23;86.88
1480;BME280;732;51.698;4.886;2024-01-27T10:27:01;103863.13;;;3.22;86.66
1480;BME280;732;51.698;4.886;2024-01-27T10:29:29;103886.31;;;3.42;85.99
1480;BME280;732;51.698;4.886;2024-01-27T10:32:11;103868.88;;;3.35;85.68
1480;BME280;732;51.698;4.886;2024-01-27T10:34:39;103863.16;;;3.49;84.91
1480;BME280;732;51.698;4.886;2024-01-27T10:37:12;103876.72;;;3.66;85.00
1480;BME280;732;51.698;4.886;2024-01-27T10:39:41;103864.06;;;3.76;84.02
1480;BME280;732;51.698;4.886;2024-01-27T10:42:10;103861.09;;;3.86;83.86
1480;BME280;732;51.698;4.886;2024-01-27T10:44:40;103878.00;;;4.10;83.66
1480;BME280;732;51.698;4.886;2024-01-27T10:47:12;103855.31;;;4.28;84.52
1480;BME280;732;51.698;4.886;2024-01-27T10:49:46;103845.59;;;4.28;82.94
1480;BME280;732;51.698;4.886;2024-01-27T10:52:18;103869.69;;;4.71;84.61
1480;BME280;732;51.698;4.886;2024-01-27T10:54:50;103848.38;;;4.51;81.91
1480;BME280;732;51.698;4.886;2024-01-27T10:57:19;103844.78;;;4.52;80.51
1480;BME280;732;51.698;4.886;2024-01-27T10:59:49;103857.38;;;4.45;80.56
1480;BME280;732;51.698;4.886;2024-01-27T11:02:19;103848.16;;;4.57;80.68
1480;BME280;732;51.698;4.886;2024-01-27T11:04:48;103837.34;;;4.87;81.28
1480;BME280;732;51.698;4.886;2024-01-27T11:07:20;103854.22;;;5.08;80.12
1480;BME280;732;51.698;4.886;2024-01-27T11:09:50;103830.75;;;4.97;78.66
1480;BME280;732;51.698;4.886;2024-01-27T11:12:21;103820.38;;;4.91;78.29
1480;BME280;732;51.698;4.886;2024-01-27T11:14:52;103840.97;;;5.08;77.91
1480;BME280;732;51.698;4.886;2024-01-27T11:17:21;103838.63;;;5.22;78.49
1480;BME280;732;51.698;4.886;2024-01-27T11:19:50;103810.41;;;5.20;77.72
1480;BME280;732;51.698;4.886;2024-01-27T11:22:28;103839.13;;;5.76;78.51
1480;BME280;732;51.698;4.886;2024-01-27T11:25:07;103838.31;;;5.74;75.78
1480;BME280;732;51.698;4.886;2024-01-27T11:27:36;103680.84;;;4.64;74.80
1480;BME280;732;51.698;4.886;2024-01-27T11:30:23;103822.41;;;5.52;75.87
1480;BME280;732;51.698;4.886;2024-01-27T11:32:55;103762.00;;;5.57;76.44
1480;BME280;732;51.698;4.886;2024-01-27T11:35:24;103803.34;;;6.06;76.84
1480;BME280;732;51.698;4.886;2024-01-27T11:37:54;103830.94;;;6.24;73.57
1480;BME280;732;51.698;4.886;2024-01-27T11:40:23;103840.63;;;6.25;74.35
1480;BME280;732;51.698;4.886;2024-01-27T11:42:55;103812.19;;;6.06;74.19
1480;BME280;732;51.698;4.886;2024-01-27T11:45:24;103832.94;;;6.19;73.39
1480;BME280;732;51.698;4.886;2024-01-27T11:47:55;103820.69;;;6.15;73.38
1480;BME280;732;51.698;4.886;2024-01-27T11:50:24;103823.50;;;6.12;71.93
1480;BME280;732;51.698;4.886;2024-01-27T11:52:54;103763.63;;;5.82;73.66
1480;BME280;732;51.698;4.886;2024-01-27T11:55:24;103805.56;;;6.17;72.25
1480;BME280;732;51.698;4.886;2024-01-27T11:57:52;103833.38;;;6.29;72.68
1480;BME280;732;51.698;4.886;2024-01-27T12:00:21;103832.47;;;6.50;72.22
1480;BME280;732;51.698;4.886;2024-01-27T12:02:50;103837.72;;;6.52;71.82
1480;BME280;732;51.698;4.886;2024-01-27T12:05:20;103822.06;;;6.23;71.50
1480;BME280;732;51.698;4.886;2024-01-27T12:07:49;103815.66;;;6.29;72.37
1480;BME280;732;51.698;4.886;2024-01-27T12:10:19;103822.34;;;6.38;73.08
1480;BME280;732;51.698;4.886;2024-01-27T12:12:48;103813.22;;;6.64;71.44
1480;BME280;732;51.698;4.886;2024-01-27T12:15:17;103810.44;;;6.26;70.29
1480;BME280;732;51.698;4.886;2024-01-27T12:17:50;103820.03;;;6.51;71.47
1480;BME280;732;51.698;4.886;2024-01-27T12:20:19;103790.84;;;6.29;71.53
1480;BME280;732;51.698;4.886;2024-01-27T12:22:50;103801.78;;;6.62;72.00
1480;BME280;732;51.698;4.886;2024-01-27T12:25:32;103765.22;;;6.67;71.99
1480;BME280;732;51.698;4.886;2024-01-27T12:28:02;103791.72;;;7.07;71.51
1480;BME280;732;51.698;4.886;2024-01-27T12:30:32;103754.41;;;6.89;68.69
1480;BME280;732;51.698;4.886;2024-01-27T12:33:01;103778.13;;;7.13;68.91
1480;BME280;732;51.698;4.886;2024-01-27T12:35:30;103788.44;;;7.02;69.00
1480;BME280;732;51.698;4.886;2024-01-27T12:38:00;103761.91;;;7.00;70.67
1480;BME280;732;51.698;4.886;2024-01-27T12:40:31;103798.06;;;7.04;68.91
1480;BME280;732;51.698;4.886;2024-01-27T12:43:00;103784.81;;;7.22;69.35
1480;BME280;732;51.698;4.886;2024-01-27T12:45:28;103769.94;;;7.18;69.41
1480;BME280;732;51.698;4.886;2024-01-27T12:47:57;103753.81;;;7.21;68.02
1480;BME280;732;51.698;4.886;2024-01-27T12:50:27;103755.88;;;7.33;67.35
1480;BME280;732;51.698;4.886;2024-01-27T12:52:55;103761.22;;;7.51;68.06
1480;BME280;732;51.698;4.886;2024-01-27T12:55:24;103767.50;;;7.50;66.44
1480;BME280;732;51.698;4.886;2024-01-27T12:57:54;103775.94;;;7.58;66.57
1480;BME280;732;51.698;4.886;2024-01-27T13:00:24;103768.53;;;7.65;67.42
1480;BME280;732;51.698;4.886;2024-01-27T13:02:53;103719.38;;;7.53;67.13
1480;BME280;732;51.698;4.886;2024-01-27T13:05:22;103762.38;;;7.45;65.70
1480;BME280;732;51.698;4.886;2024-01-27T13:07:50;103679.97;;;7.07;66.33
1480;BME280;732;51.698;4.886;2024-01-27T13:10:19;103759.81;;;7.44;65.30
1480;BME280;732;51.698;4.886;2024-01-27T13:12:47;103770.16;;;7.50;66.50
1480;BME280;732;51.698;4.886;2024-01-27T13:15:17;103764.72;;;7.34;66.40
1480;BME280;732;51.698;4.886;2024-01-27T13:17:46;103744.53;;;7.11;66.50
1480;BME280;732;51.698;4.886;2024-01-27T13:20:15;103754.47;;;7.26;66.91
1480;BME280;732;51.698;4.886;2024-01-27T13:22:47;103764.41;;;7.40;66.77
1480;BME280;732;51.698;4.886;2024-01-27T13:25:16;103744.28;;;7.52;66.89
1480;BME280;732;51.698;4.886;2024-01-27T13:27:44;103760.63;;;7.63;66.62
1480;BME280;732;51.698;4.886;2024-01-27T13:30:14;103746.34;;;7.64;66.86
1480;BME280;732;51.698;4.886;2024-01-27T13:32:46;103726.44;;;7.54;65.20
1480;BME280;732;51.698;4.886;2024-01-27T13:35:15;103751.22;;;7.56;64.48
1480;BME280;732;51.698;4.886;2024-01-27T13:37:44;103716.31;;;7.43;65.71
1480;BME280;732;51.698;4.886;2024-01-27T13:40:13;103714.22;;;7.50;65.82